Detall de PIREP

Printer-friendly versionPDF version

[2017/03/02 11:57:00]
Flight IATA:CT1004
Pilot Number:012
Company ICAO:CAT
Aircraft Type:DC3/A
PAX:19
Aircraft Registration:PAX
Departing Airport: LEBL
Destination Airport: LFBO
Alternate Airport:LFPG
Online: VATSIM
Route:CLE DCT NENDA G7 BGR A27 PPG G36 ORBIL
Flight Level:F100
No Slew and time accel
No pause
Crash detect
Detect pilot in Cockpit between each 30 and 45 minutes
11:57 Zero fuel Weight: 19928 Lbs, Fuel Weight: 2826 Lbs
11:57 VATSIM:LEBL 021730Z 21006KT CAVOK 14/12 Q1018 NOSIG
11:57 VATSIM:LFBO 021730Z AUTO 08007KT CAVOK 15/07 Q1016 NOSIG
11:57 MWC 2017 BARCELONA CHARTER
11:57 Parking Brakes off
12:01 Take-off
12:01 Take off Weight: 22731 Lbs
12:01 Wind: 209º @ 006 Knots Heading: 244º
12:01 POS N41º 17´ 06´´ E002º 04´ 58´´
12:01 Gear Up: 103 Knots
12:13 TOC
12:13 Fuel Weight: 2641 Lb
12:16 Wind:263º@006 Knots Heading: 070º Ground Speed: 168 Knots Altitude 10121 ft
12:31 Wind:263º@005 Knots Heading: 343º Ground Speed: 157 Knots Altitude 10121 ft
12:46 Wind:189º@009 Knots Heading: 341º Ground Speed: 173 Knots Altitude 10114 ft
13:01 Wind:241º@017 Knots Heading: 321º Ground Speed: 162 Knots Altitude 10088 ft
13:06 TOD
13:06 Fuel Weight: 2049 Lb
13:16 Wind:138º@003 Knots Heading: 257º Ground Speed: 134 Knots Altitude 3001 ft
13:19 Flaps:1 at 136 Knots
13:19 Gear Down: 115 Knots
13:19 Flaps:2 at 106 Knots
13:21 Flaps:3 at 103 Knots
13:22 Flaps:4 at 92 Knots
13:24 TouchDown:Rate -66 ft/min Speed: 70 Knots
13:24 VATSIM:LFBO 021900Z AUTO 08003KT 040V110 CAVOK 14/07 Q1016 NOSIG
13:24 Land
13:24 Wind:096º@003 Knots
13:24 Heading: 030º
13:24 Flight Duration: 01:23
13:24 Landing Weight: 21827 Lbs
13:24 POS N43º 37´ 29´´ E001º 22´ 15´´
13:26 Parking brakes on
13:26 Block to Block Duration: 01:29
13:26 Final Fuel: 1893 Lbls
13:26 Spent Fuel: 932 Lbls
13:26 Flight Length: 213 NM
13:26 TOD Land Length: 42 NM

Exportar CSV

Powered by Drupal - Modified by Danger4k